Time;durP1;ratioP1;P1;durP2;ratioP2;P2;SDS_P1;SDS_P2;PMS_P1;PMS_P2;Temp;Humidity;BMP_temperature;BMP_pressure;BME280_temperature;BME280_humidity;BME280_pressure;Samples;Min_cycle;Max_cycle;Signal;HPM_P1;HPM_P2
2022/11/13 00:00:12;;;;;;;32.53;24.90;;;9.60;1.00;;;;;;6285720;28;20251;-55
2022/11/13 00:03:39;;;;;;;29.10;22.90;;;9.60;1.00;;;;;;6285781;28;20237;-54
2022/11/13 00:06:42;;;;;;;30.80;25.27;;;9.60;1.00;;;;;;6294785;28;20224;-56
2022/11/13 00:09:45;;;;;;;28.07;25.13;;;9.60;1.00;;;;;;6290674;28;20229;-54
2022/11/13 00:12:50;;;;;;;26.67;23.30;;;9.60;1.00;;;;;;6308026;28;20240;-56
2022/11/13 00:15:57;;;;;;;29.27;25.63;;;9.70;1.00;;;;;;6299057;28;20232;-55
2022/11/13 00:19:00;;;;;;;30.90;24.33;;;9.70;1.00;;;;;;6284720;28;20826;-54
2022/11/13 00:22:03;;;;;;;22.23;20.03;;;9.70;1.00;;;;;;6284317;28;20316;-54
2022/11/13 00:25:07;;;;;;;33.00;25.93;;;9.70;1.00;;;;;;6284909;28;20393;-54
2022/11/13 00:28:11;;;;;;;24.97;22.07;;;9.80;1.00;;;;;;6284966;28;20233;-55
2022/11/13 00:31:15;;;;;;;23.10;20.63;;;9.80;1.00;;;;;;6305061;28;20237;-56
2022/11/13 00:34:18;;;;;;;26.40;22.37;;;9.80;1.00;;;;;;6307822;28;20240;-54
2022/11/13 00:37:41;;;;;;;25.57;22.80;;;9.80;1.00;;;;;;6293754;28;20259;-53
2022/11/13 00:40:44;;;;;;;24.27;21.70;;;9.90;1.00;;;;;;6301426;28;20225;-53
2022/11/13 00:43:52;;;;;;;27.10;23.77;;;9.90;1.00;;;;;;6301234;28;20897;-56
2022/11/13 00:46:58;;;;;;;27.03;21.07;;;9.90;1.00;;;;;;6307113;28;20232;-53
2022/11/13 00:50:01;;;;;;;26.33;21.27;;;9.90;1.00;;;;;;6283912;28;20229;-53
2022/11/13 00:53:04;;;;;;;22.53;20.30;;;10.00;1.00;;;;;;6307782;28;20255;-53
2022/11/13 00:56:07;;;;;;;24.03;20.40;;;10.00;1.00;;;;;;6310142;28;20240;-53
2022/11/13 00:59:12;;;;;;;25.10;21.30;;;10.00;1.00;;;;;;6308722;28;20251;-54
2022/11/13 01:02:26;;;;;;;28.63;22.53;;;10.00;1.00;;;;;;6289581;28;20327;-54
2022/11/13 01:05:29;;;;;;;24.30;21.63;;;10.00;1.00;;;;;;6282757;28;20226;-54
2022/11/13 01:08:32;;;;;;;23.53;20.93;;;10.10;1.00;;;;;;6292290;28;20237;-54
2022/11/13 01:11:41;;;;;;;28.03;22.83;;;10.10;1.00;;;;;;6301007;28;20710;-54
2022/11/13 01:14:46;;;;;;;23.20;20.70;;;10.10;1.00;;;;;;6283627;28;20242;-56
2022/11/13 01:17:49;;;;;;;23.33;20.73;;;10.10;1.00;;;;;;6310807;28;20224;-49
2022/11/13 01:20:52;;;;;;;22.90;20.50;;;10.10;1.00;;;;;;6309776;28;20259;-55
2022/11/13 01:23:55;;;;;;;24.87;22.00;;;10.10;1.00;;;;;;6307646;28;20240;-55
2022/11/13 01:26:58;;;;;;;24.03;21.53;;;10.10;1.00;;;;;;6308350;28;20414;-55
2022/11/13 01:30:03;;;;;;;25.33;22.17;;;10.20;1.00;;;;;;6309122;28;20717;-54
2022/11/13 01:33:08;;;;;;;27.70;22.83;;;10.20;1.00;;;;;;6308301;28;20249;-53
2022/11/13 01:36:13;;;;;;;23.97;21.47;;;10.20;1.00;;;;;;6282938;28;20615;-55
2022/11/13 01:39:26;;;;;;;27.07;22.77;;;10.20;1.00;;;;;;6296551;28;20228;-55
2022/11/13 01:42:29;;;;;;;26.97;21.87;;;10.20;1.00;;;;;;6293872;28;20241;-55
2022/11/13 01:46:05;;;;;;;23.97;21.37;;;10.20;1.00;;;;;;6282060;28;20244;-55
2022/11/13 01:49:31;;;;;;;26.23;22.07;;;10.20;1.00;;;;;;6300496;28;20233;-53
2022/11/13 01:52:42;;;;;;;27.63;23.03;;;10.20;1.00;;;;;;6289442;28;20523;-55
2022/11/13 01:55:46;;;;;;;25.53;22.93;;;10.20;1.00;;;;;;6282817;28;20237;-55
2022/11/13 01:58:53;;;;;;;23.30;20.90;;;10.30;1.00;;;;;;6282198;28;20617;-55
2022/11/13 02:01:59;;;;;;;21.40;19.03;;;10.20;1.00;;;;;;6282549;28;20287;-55
2022/11/13 02:05:03;;;;;;;24.57;22.00;;;10.20;1.00;;;;;;6282517;28;20630;-55
2022/11/13 02:08:09;;;;;;;22.40;20.00;;;10.20;1.00;;;;;;6293634;28;20248;-54
2022/11/13 02:11:12;;;;;;;25.70;22.67;;;10.30;1.00;;;;;;6308278;28;20267;-55
2022/11/13 02:14:17;;;;;;;23.53;21.23;;;10.20;1.00;;;;;;6290328;28;20327;-54
2022/11/13 02:17:26;;;;;;;24.70;22.13;;;10.20;1.00;;;;;;6285622;28;20249;-55
2022/11/13 02:20:39;;;;;;;24.43;20.73;;;10.20;1.00;;;;;;6281216;28;20241;-54
2022/11/13 02:23:50;;;;;;;22.93;19.93;;;10.20;1.00;;;;;;6282240;28;20498;-54
2022/11/13 02:26:56;;;;;;;23.07;20.73;;;10.20;1.00;;;;;;6282270;28;20399;-55
2022/11/13 02:30:10;;;;;;;24.27;21.03;;;10.20;1.00;;;;;;6282208;28;20229;-55
2022/11/13 02:33:31;;;;;;;21.70;19.50;;;10.20;1.00;;;;;;6282810;28;20252;-53
2022/11/13 02:36:35;;;;;;;23.10;20.67;;;10.20;1.00;;;;;;6283701;28;20261;-55
2022/11/13 02:39:38;;;;;;;22.60;20.20;;;10.20;1.00;;;;;;6299463;28;20233;-54
2022/11/13 02:42:43;;;;;;;23.23;20.73;;;10.30;1.00;;;;;;6298448;28;20236;-55
2022/11/13 02:45:46;;;;;;;24.80;20.80;;;10.30;1.00;;;;;;6285426;28;20266;-54
2022/11/13 02:48:49;;;;;;;23.30;20.90;;;10.30;1.00;;;;;;6282602;28;20772;-54
2022/11/13 02:51:52;;;;;;;23.97;21.37;;;10.20;1.00;;;;;;6281524;28;20237;-55
2022/11/13 02:54:55;;;;;;;24.60;21.13;;;10.30;1.00;;;;;;6282134;28;20233;-53
2022/11/13 02:57:59;;;;;;;23.17;20.77;;;10.20;1.00;;;;;;6281849;28;20236;-55
2022/11/13 03:01:03;;;;;;;22.23;20.07;;;10.30;1.00;;;;;;6282818;28;20233;-54
2022/11/13 03:04:06;;;;;;;22.40;19.93;;;10.30;1.00;;;;;;6281048;28;20237;-53
2022/11/13 03:07:09;;;;;;;21.47;19.37;;;10.30;1.00;;;;;;6286627;28;20732;-54
2022/11/13 03:10:13;;;;;;;19.03;17.30;;;10.30;1.00;;;;;;6295056;28;20232;-55
2022/11/13 03:13:17;;;;;;;21.40;19.33;;;10.30;1.00;;;;;;6297151;28;20236;-54
2022/11/13 03:16:20;;;;;;;19.97;18.03;;;10.30;1.00;;;;;;6301730;28;20244;-54
2022/11/13 03:19:24;;;;;;;21.03;18.90;;;10.30;1.00;;;;;;6302107;28;20229;-55
2022/11/13 03:22:28;;;;;;;20.37;18.23;;;10.30;1.00;;;;;;6281539;28;20245;-55
2022/11/13 03:25:35;;;;;;;16.93;15.33;;;10.30;1.00;;;;;;6282434;28;20237;-54
2022/11/13 03:28:39;;;;;;;17.50;15.63;;;10.30;1.00;;;;;;6287094;28;20230;-54
2022/11/13 03:31:42;;;;;;;17.90;16.00;;;10.30;1.00;;;;;;6286204;28;20229;-54
2022/11/13 03:34:45;;;;;;;18.20;16.40;;;10.30;1.00;;;;;;6286816;28;20241;-55
2022/11/13 03:37:50;;;;;;;16.90;15.00;;;10.30;1.00;;;;;;6295864;28;20236;-53
2022/11/13 03:40:53;;;;;;;15.50;13.30;;;10.30;1.00;;;;;;6297406;28;20240;-54
2022/11/13 03:43:57;;;;;;;15.33;13.77;;;10.30;1.00;;;;;;6293439;28;20260;-55
2022/11/13 03:47:00;;;;;;;14.10;12.77;;;10.30;1.00;;;;;;6284603;28;20553;-53
2022/11/13 03:50:04;;;;;;;14.93;13.53;;;10.30;1.00;;;;;;6304143;28;20241;-53
2022/11/13 03:53:07;;;;;;;14.83;13.43;;;10.30;1.00;;;;;;6307432;28;20241;-55
2022/11/13 03:56:10;;;;;;;15.70;14.10;;;10.40;1.00;;;;;;6311323;28;20240;-53
2022/11/13 03:59:14;;;;;;;15.57;14.07;;;10.40;1.00;;;;;;6309957;28;20237;-54
2022/11/13 04:02:17;;;;;;;17.80;15.93;;;10.30;1.00;;;;;;6290860;28;20237;-54
2022/11/13 04:05:20;;;;;;;17.33;15.70;;;10.40;1.00;;;;;;6284212;28;20248;-55
2022/11/13 04:08:24;;;;;;;16.17;14.57;;;10.40;1.00;;;;;;6295535;28;20752;-53
2022/11/13 04:11:28;;;;;;;17.27;14.67;;;10.40;1.00;;;;;;6298214;28;20286;-55
2022/11/13 04:14:32;;;;;;;16.57;15.07;;;10.40;1.00;;;;;;6293324;28;20244;-54
2022/11/13 04:17:35;;;;;;;16.23;14.63;;;10.40;1.00;;;;;;6282941;28;20229;-54
2022/11/13 04:20:44;;;;;;;15.27;13.83;;;10.70;1.00;;;;;;6296908;28;20239;-54
2022/11/13 04:23:47;;;;;;;17.27;15.47;;;10.30;1.00;;;;;;6299711;28;20243;-55
2022/11/13 04:26:50;;;;;;;16.70;15.10;;;10.30;1.00;;;;;;6307942;28;20241;-56
2022/11/13 04:29:55;;;;;;;17.13;15.43;;;10.40;1.00;;;;;;6285444;28;20618;-55
2022/11/13 04:33:01;;;;;;;16.17;14.63;;;10.40;1.00;;;;;;6277494;28;20714;-54
2022/11/13 04:36:04;;;;;;;16.07;14.63;;;10.40;1.00;;;;;;6296928;28;20233;-56
2022/11/13 04:39:08;;;;;;;16.30;14.70;;;10.40;1.00;;;;;;6294754;28;20251;-54
2022/11/13 04:45:35;;;;;;;15.53;14.03;;;10.30;1.00;;;;;;6290818;28;20488;-55
2022/11/13 04:48:38;;;;;;;15.37;13.93;;;10.30;1.00;;;;;;6280987;28;20240;-55
2022/11/13 04:51:40;;;;;;;15.47;14.03;;;10.30;1.00;;;;;;6299246;28;20240;-55
2022/11/13 04:54:43;;;;;;;16.53;15.13;;;10.30;1.00;;;;;;6286523;28;20282;-54
2022/11/13 04:57:50;;;;;;;15.33;13.97;;;10.30;1.00;;;;;;6304123;28;20241;-55
2022/11/13 05:00:54;;;;;;;15.90;14.40;;;10.30;1.00;;;;;;6301881;28;20820;-54
2022/11/13 05:03:57;;;;;;;16.23;14.63;;;10.30;1.00;;;;;;6285795;28;20233;-55
2022/11/13 05:07:00;;;;;;;15.50;14.00;;;10.30;1.00;;;;;;6289652;28;20249;-55
2022/11/13 05:10:04;;;;;;;15.70;14.27;;;10.20;1.00;;;;;;6291256;28;20233;-55
2022/11/13 05:13:07;;;;;;;14.97;13.47;;;10.20;1.00;;;;;;6289747;28;20612;-54
2022/11/13 05:16:13;;;;;;;16.93;13.13;;;10.20;1.00;;;;;;6291486;28;20229;-54
2022/11/13 05:19:17;;;;;;;13.63;12.33;;;10.30;1.00;;;;;;6286958;28;20372;-55
2022/11/13 05:22:21;;;;;;;15.43;14.00;;;10.20;1.00;;;;;;6292855;28;20771;-53
2022/11/13 05:25:24;;;;;;;15.00;13.53;;;10.20;1.00;;;;;;6290007;28;20233;-55
2022/11/13 05:28:27;;;;;;;14.73;13.40;;;10.20;1.00;;;;;;6280233;28;20229;-55
2022/11/13 05:31:32;;;;;;;17.53;13.00;;;10.20;1.00;;;;;;6282927;28;20390;-54
2022/11/13 05:34:36;;;;;;;15.10;13.27;;;10.20;1.00;;;;;;6290180;28;20245;-55
2022/11/13 05:37:39;;;;;;;15.30;14.00;;;10.20;1.00;;;;;;6296344;28;20713;-54
2022/11/13 05:40:42;;;;;;;15.77;14.20;;;10.20;1.00;;;;;;6294673;28;20240;-55
2022/11/13 05:43:45;;;;;;;14.93;13.53;;;10.20;1.00;;;;;;6289895;28;20241;-55
2022/11/13 05:46:50;;;;;;;17.63;15.53;;;10.20;1.00;;;;;;6301428;28;20225;-55
2022/11/13 05:49:52;;;;;;;15.83;14.33;;;10.20;1.00;;;;;;6289354;28;20229;-55
2022/11/13 05:52:55;;;;;;;15.20;13.87;;;10.30;1.00;;;;;;6295736;28;20337;-54
2022/11/13 05:56:00;;;;;;;17.73;15.87;;;10.20;1.00;;;;;;6289201;28;20265;-55
2022/11/13 05:59:05;;;;;;;16.73;14.97;;;10.30;1.00;;;;;;6301661;28;20315;-54
2022/11/13 06:02:09;;;;;;;17.27;15.67;;;10.30;1.00;;;;;;6299348;28;20244;-55
2022/11/13 06:05:12;;;;;;;16.83;15.33;;;10.20;1.00;;;;;;6300455;28;20494;-54
2022/11/13 06:08:15;;;;;;;19.33;17.57;;;10.30;1.00;;;;;;6288047;28;20229;-54
2022/11/13 06:11:20;;;;;;;18.57;16.93;;;10.30;1.00;;;;;;6296062;27;20255;-54
2022/11/13 06:14:23;;;;;;;18.87;17.27;;;10.20;1.00;;;;;;6304319;28;20768;-55
2022/11/13 06:17:27;;;;;;;19.93;16.77;;;10.20;1.00;;;;;;6283512;28;20244;-55
2022/11/13 06:20:30;;;;;;;23.33;20.97;;;10.30;1.00;;;;;;6297782;28;20243;-55
2022/11/13 06:23:34;;;;;;;23.23;20.83;;;10.30;1.00;;;;;;6282945;28;20237;-55
2022/11/13 06:26:38;;;;;;;25.43;22.83;;;10.30;1.00;;;;;;6289084;28;20244;-54
2022/11/13 06:29:45;;;;;;;25.53;22.63;;;10.30;1.00;;;;;;6288557;28;20478;-54
2022/11/13 06:32:53;;;;;;;30.33;24.63;;;10.30;1.00;;;;;;6285430;28;20741;-54
2022/11/13 06:35:56;;;;;;;24.17;21.80;;;10.30;1.00;;;;;;6295769;28;20241;-55
2022/11/13 06:39:00;;;;;;;26.40;23.70;;;10.30;1.00;;;;;;6284477;28;20241;-55
2022/11/13 06:42:03;;;;;;;25.30;22.57;;;10.30;1.00;;;;;;6286882;28;20307;-55
2022/11/13 06:45:07;;;;;;;29.47;24.53;;;10.30;1.00;;;;;;6295165;28;20247;-54
2022/11/13 06:48:11;;;;;;;27.53;24.70;;;10.30;1.00;;;;;;6283526;28;20238;-54
2022/11/13 06:51:16;;;;;;;25.97;23.27;;;10.30;1.00;;;;;;6279843;28;20237;-54
2022/11/13 06:54:19;;;;;;;23.90;20.63;;;10.40;1.00;;;;;;6281956;28;20236;-54
2022/11/13 06:57:22;;;;;;;26.13;23.17;;;10.30;1.00;;;;;;6294396;28;20236;-53
2022/11/13 07:00:25;;;;;;;25.97;21.93;;;10.30;1.00;;;;;;6298421;28;20239;-55
2022/11/13 07:03:33;;;;;;;21.63;19.30;;;10.40;1.00;;;;;;6309065;28;20247;-58
2022/11/13 07:06:36;;;;;;;19.30;17.47;;;10.40;1.00;;;;;;6292819;28;20241;-52
2022/11/13 07:09:42;;;;;;;20.37;18.17;;;10.40;1.00;;;;;;6301323;28;20236;-53
2022/11/13 07:12:46;;;;;;;21.17;17.40;;;10.40;1.00;;;;;;6300499;28;20229;-55
2022/11/13 07:16:02;;;;;;;18.77;16.90;;;10.40;1.00;;;;;;6294304;28;20233;-55
2022/11/13 07:19:20;;;;;;;19.80;17.53;;;10.40;1.00;;;;;;6302973;28;20339;-55
2022/11/13 07:22:23;;;;;;;21.80;18.30;;;10.40;1.00;;;;;;6299571;28;20235;-55
2022/11/13 07:25:31;;;;;;;21.90;17.90;;;10.40;1.00;;;;;;6300524;27;20236;-54
2022/11/13 07:28:34;;;;;;;19.43;16.17;;;10.40;1.00;;;;;;6296656;28;20455;-53
2022/11/13 07:31:37;;;;;;;18.93;16.23;;;10.40;1.00;;;;;;6307480;28;20244;-54
2022/11/13 07:34:41;;;;;;;23.73;17.90;;;10.40;1.00;;;;;;6294997;28;20241;-56
2022/11/13 07:37:44;;;;;;;19.97;16.73;;;10.40;1.00;;;;;;6294599;28;20599;-55
2022/11/13 07:40:47;;;;;;;18.20;16.27;;;10.40;1.00;;;;;;6295994;28;20657;-55
2022/11/13 07:43:50;;;;;;;17.40;15.60;;;10.40;1.00;;;;;;6297656;28;20249;-55
2022/11/13 07:46:53;;;;;;;18.70;16.67;;;10.40;1.00;;;;;;6299016;28;20237;-53
2022/11/13 07:50:01;;;;;;;21.83;17.80;;;10.50;1.00;;;;;;6294194;28;20374;-53
2022/11/13 07:53:17;;;;;;;21.30;17.73;;;10.40;1.00;;;;;;6304499;28;20775;-54
2022/11/13 07:56:21;;;;;;;24.20;19.13;;;10.40;1.00;;;;;;6300277;28;20226;-55
2022/11/13 07:59:25;;;;;;;21.17;18.80;;;10.40;1.00;;;;;;6298107;28;20236;-54
2022/11/13 08:02:28;;;;;;;22.53;19.33;;;10.40;1.00;;;;;;6297821;28;20245;-55
2022/11/13 08:05:32;;;;;;;21.93;18.90;;;10.40;1.00;;;;;;6297999;28;20244;-54
2022/11/13 08:08:36;;;;;;;22.63;19.23;;;10.50;1.00;;;;;;6296284;28;20233;-55
2022/11/13 08:11:38;;;;;;;20.73;17.83;;;10.50;1.00;;;;;;6300177;28;20237;-55
2022/11/13 08:14:41;;;;;;;24.17;18.43;;;10.50;1.00;;;;;;6288276;28;20237;-55
2022/11/13 08:17:44;;;;;;;21.60;19.30;;;10.50;1.00;;;;;;6295349;28;20488;-53
2022/11/13 08:20:49;;;;;;;23.13;19.93;;;10.50;1.00;;;;;;6297631;28;20240;-55
2022/11/13 08:23:52;;;;;;;23.27;19.07;;;10.60;1.00;;;;;;6306017;28;20243;-55
2022/11/13 08:26:55;;;;;;;27.40;19.03;;;10.60;1.00;;;;;;6303325;28;21081;-54
2022/11/13 08:29:58;;;;;;;23.40;18.83;;;10.60;1.00;;;;;;6290157;28;20613;-55
2022/11/13 08:33:02;;;;;;;22.90;18.33;;;10.60;1.00;;;;;;6282067;28;20229;-54
2022/11/13 08:36:08;;;;;;;24.47;18.50;;;10.60;1.00;;;;;;6296410;28;20674;-54
2022/11/13 08:39:11;;;;;;;21.17;18.73;;;10.60;1.00;;;;;;6284364;28;20237;-54
2022/11/13 08:42:15;;;;;;;21.43;18.13;;;10.70;1.00;;;;;;6292100;28;20233;-54
2022/11/13 08:45:18;;;;;;;22.73;19.33;;;10.70;1.00;;;;;;6303000;28;20367;-56
2022/11/13 08:48:32;;;;;;;22.93;19.60;;;10.70;1.00;;;;;;6297697;28;20232;-60
2022/11/13 08:51:37;;;;;;;22.80;19.17;;;10.70;1.00;;;;;;6297545;28;20394;-54
2022/11/13 08:54:40;;;;;;;28.77;22.07;;;10.70;1.00;;;;;;6298093;28;20256;-53
2022/11/13 08:57:43;;;;;;;23.60;19.60;;;10.70;1.00;;;;;;6295144;28;20239;-55
2022/11/13 09:00:46;;;;;;;21.40;18.80;;;10.80;1.00;;;;;;6290231;28;20233;-55
2022/11/13 09:03:49;;;;;;;19.77;17.63;;;10.80;1.00;;;;;;6307528;28;20726;-53
2022/11/13 09:06:54;;;;;;;23.40;19.43;;;10.90;1.00;;;;;;6292683;28;20240;-53
2022/11/13 09:09:57;;;;;;;22.03;18.50;;;10.90;1.00;;;;;;6294716;28;20850;-53
2022/11/13 09:13:02;;;;;;;25.47;18.73;;;10.90;1.00;;;;;;6303190;28;20229;-54
2022/11/13 09:16:05;;;;;;;22.37;17.97;;;10.90;1.00;;;;;;6292916;28;20290;-53
2022/11/13 09:19:09;;;;;;;21.47;18.50;;;10.90;1.00;;;;;;6300206;27;20607;-55
2022/11/13 09:22:15;;;;;;;20.30;17.03;;;11.00;1.00;;;;;;6302797;28;20732;-55
2022/11/13 09:25:18;;;;;;;25.37;19.47;;;10.90;1.00;;;;;;6295345;28;20232;-55
2022/11/13 09:28:21;;;;;;;23.93;20.03;;;10.90;1.00;;;;;;6297889;28;20847;-55
2022/11/13 09:31:24;;;;;;;21.10;18.87;;;10.90;1.00;;;;;;6292145;28;20229;-55
2022/11/13 09:34:27;;;;;;;19.97;17.87;;;11.00;1.00;;;;;;6302475;28;20229;-56
2022/11/13 09:37:32;;;;;;;21.83;19.30;;;11.00;1.00;;;;;;6297995;28;20395;-53
2022/11/13 09:40:41;;;;;;;22.27;18.73;;;11.00;1.00;;;;;;6300328;28;20229;-54
2022/11/13 09:43:50;;;;;;;20.67;17.43;;;11.00;1.00;;;;;;6299712;28;20313;-54
2022/11/13 09:47:08;;;;;;;21.43;17.47;;;11.00;1.00;;;;;;6285256;28;20236;-55
2022/11/13 09:50:19;;;;;;;19.30;17.30;;;11.00;1.00;;;;;;6301147;28;20237;-54
2022/11/13 09:53:24;;;;;;;19.80;17.27;;;11.10;1.00;;;;;;6301183;28;20483;-53
2022/11/13 09:56:31;;;;;;;18.10;16.30;;;11.10;1.00;;;;;;6305928;28;20236;-54
2022/11/13 09:59:40;;;;;;;18.37;16.43;;;11.10;1.00;;;;;;6299230;28;20708;-54
2022/11/13 10:02:55;;;;;;;19.00;16.93;;;11.10;1.00;;;;;;6289826;28;20236;-55
2022/11/13 10:06:04;;;;;;;17.90;16.10;;;11.20;1.00;;;;;;6289318;28;20236;-55
2022/11/13 10:09:17;;;;;;;17.07;15.47;;;11.20;1.00;;;;;;6292228;28;20229;-55
2022/11/13 10:12:21;;;;;;;17.60;15.77;;;11.30;1.00;;;;;;6295311;28;20255;-54
2022/11/13 10:15:26;;;;;;;16.77;15.07;;;11.30;1.00;;;;;;6295505;28;20354;-55
2022/11/13 10:18:34;;;;;;;16.87;15.17;;;11.30;1.00;;;;;;6300309;28;20407;-55
2022/11/13 10:21:42;;;;;;;16.53;14.93;;;11.30;1.00;;;;;;6300532;28;20259;-53
2022/11/13 10:24:52;;;;;;;16.87;14.83;;;11.30;1.00;;;;;;6295623;28;20249;-55
2022/11/13 10:27:58;;;;;;;16.37;14.77;;;11.30;1.00;;;;;;6294716;28;20347;-54
2022/11/13 10:31:01;;;;;;;16.53;14.90;;;11.30;1.00;;;;;;6294815;28;20240;-55
2022/11/13 10:34:04;;;;;;;15.67;13.97;;;11.30;1.00;;;;;;6290839;28;20768;-55
2022/11/13 10:37:24;;;;;;;15.97;14.37;;;11.30;1.00;;;;;;6296076;28;20239;-54
2022/11/13 10:40:30;;;;;;;16.27;14.60;;;11.30;1.00;;;;;;6296845;28;20244;-54
2022/11/13 10:43:34;;;;;;;16.00;14.27;;;11.30;1.00;;;;;;6293488;28;20224;-55
2022/11/13 10:46:38;;;;;;;15.97;13.63;;;11.40;1.00;;;;;;6287198;28;20597;-54
2022/11/13 10:49:41;;;;;;;15.97;14.20;;;11.40;1.00;;;;;;6285581;28;20240;-54
2022/11/13 10:52:47;;;;;;;15.80;14.27;;;11.30;1.00;;;;;;6292129;28;20640;-53
2022/11/13 10:55:55;;;;;;;16.90;15.20;;;11.30;1.00;;;;;;6293348;28;20233;-55
2022/11/13 10:59:03;;;;;;;15.40;14.03;;;11.40;1.00;;;;;;6294960;28;20612;-54
2022/11/13 11:02:16;;;;;;;15.90;14.30;;;11.40;1.00;;;;;;6295689;28;20265;-54
2022/11/13 11:05:21;;;;;;;16.20;14.73;;;11.40;1.00;;;;;;6291831;28;20221;-54
2022/11/13 11:08:30;;;;;;;16.70;15.03;;;11.40;1.00;;;;;;6298255;28;20244;-56
2022/11/13 11:15:06;;;;;;;14.30;13.00;;;11.50;1.00;;;;;;6292748;28;20225;-56
2022/11/13 11:18:22;;;;;;;15.13;13.77;;;11.50;1.00;;;;;;6298064;28;20282;-55
2022/11/13 11:21:29;;;;;;;15.73;14.23;;;11.50;1.00;;;;;;6289483;28;20262;-55
2022/11/13 11:24:36;;;;;;;16.20;14.47;;;11.50;1.00;;;;;;6296691;28;20241;-55
2022/11/13 11:27:46;;;;;;;15.20;13.67;;;11.60;1.00;;;;;;6281015;28;20331;-54
2022/11/13 11:30:52;;;;;;;14.47;13.17;;;11.70;1.00;;;;;;6292578;28;20617;-54
2022/11/13 11:34:09;;;;;;;15.77;14.23;;;11.70;1.00;;;;;;6298074;28;20244;-54
2022/11/13 11:37:14;;;;;;;14.20;12.90;;;11.80;1.00;;;;;;6293557;28;20311;-53
2022/11/13 11:40:28;;;;;;;14.70;13.30;;;11.80;1.00;;;;;;6292748;28;20494;-55
2022/11/13 11:43:41;;;;;;;13.53;12.23;;;11.80;1.00;;;;;;6296692;28;20236;-54
2022/11/13 11:46:44;;;;;;;13.17;12.00;;;11.90;1.00;;;;;;6286306;28;20237;-54
2022/11/13 11:49:49;;;;;;;13.53;12.23;;;11.90;1.00;;;;;;6299005;28;20233;-54
2022/11/13 11:53:03;;;;;;;15.00;13.30;;;11.90;1.00;;;;;;6304009;28;20244;-54
2022/11/13 11:56:26;;;;;;;15.13;13.80;;;11.90;1.00;;;;;;6291940;28;20252;-55
2022/11/13 11:59:50;;;;;;;15.23;13.33;;;11.90;1.00;;;;;;6288470;28;20697;-55
2022/11/13 12:03:28;;;;;;;16.40;14.33;;;11.90;1.00;;;;;;6288901;28;20638;-54
2022/11/13 12:06:45;;;;;;;15.53;14.20;;;12.10;1.00;;;;;;6292433;28;20710;-55
2022/11/13 12:09:58;;;;;;;16.83;14.30;;;12.10;1.00;;;;;;6297967;28;20469;-54
2022/11/13 12:13:20;;;;;;;14.90;13.57;;;12.20;1.00;;;;;;6299619;28;20237;-54
2022/11/13 12:16:31;;;;;;;15.97;14.30;;;12.30;1.00;;;;;;6291169;28;20237;-55
2022/11/13 12:19:45;;;;;;;17.77;15.77;;;12.30;1.00;;;;;;6297442;28;20240;-54
2022/11/13 12:22:55;;;;;;;15.90;14.40;;;12.40;1.00;;;;;;6297039;28;20230;-54
2022/11/13 12:26:06;;;;;;;16.03;14.47;;;12.40;1.00;;;;;;6301203;28;20764;-55
2022/11/13 12:29:22;;;;;;;17.83;14.67;;;12.40;1.00;;;;;;6286635;28;20248;-55
2022/11/13 12:32:58;;;;;;;17.37;15.60;;;12.40;1.00;;;;;;6292435;28;20234;-53
2022/11/13 12:36:03;;;;;;;16.43;14.80;;;12.40;1.00;;;;;;6295742;28;20319;-55
2022/11/13 12:39:23;;;;;;;16.57;15.00;;;12.50;1.00;;;;;;6295246;28;20264;-54
2022/11/13 12:42:34;;;;;;;15.53;13.57;;;12.50;1.00;;;;;;6285943;28;20234;-55
2022/11/13 12:45:50;;;;;;;15.73;14.20;;;12.60;1.00;;;;;;6296338;28;20236;-54
2022/11/13 12:48:55;;;;;;;16.00;14.47;;;12.70;1.00;;;;;;6288821;28;20241;-56
2022/11/13 12:52:00;;;;;;;15.97;14.57;;;12.70;1.00;;;;;;6300989;28;20233;-56
2022/11/13 12:55:09;;;;;;;16.93;15.37;;;12.80;1.00;;;;;;6294738;28;20239;-55
2022/11/13 12:58:25;;;;;;;17.10;15.57;;;12.80;1.00;;;;;;6292939;28;20701;-55
2022/11/13 13:01:33;;;;;;;19.47;15.93;;;12.80;1.00;;;;;;6294626;28;20762;-55
2022/11/13 13:04:52;;;;;;;16.17;14.37;;;12.80;1.00;;;;;;6303256;28;20241;-54
2022/11/13 13:08:20;;;;;;;15.90;14.57;;;12.90;1.00;;;;;;6288870;28;20226;-54
2022/11/13 13:11:37;;;;;;;17.57;15.93;;;12.80;1.00;;;;;;6286041;28;20491;-54
2022/11/13 13:15:09;;;;;;;17.37;15.57;;;12.80;1.00;;;;;;6298131;28;20233;-54
2022/11/13 13:18:25;;;;;;;16.53;15.03;;;12.80;1.00;;;;;;6288803;28;20233;-55
2022/11/13 13:21:43;;;;;;;16.40;14.80;;;12.80;1.00;;;;;;6294378;28;20256;-56
2022/11/13 13:24:57;;;;;;;16.83;15.07;;;12.80;1.00;;;;;;6297111;28;20244;-56
2022/11/13 13:28:02;;;;;;;16.53;15.13;;;12.70;1.00;;;;;;6301635;28;20713;-53
2022/11/13 13:31:21;;;;;;;16.60;14.57;;;12.70;1.00;;;;;;6290836;28;20237;-56
2022/11/13 13:34:35;;;;;;;16.77;15.27;;;12.70;1.00;;;;;;6288388;28;20426;-55
2022/11/13 13:37:49;;;;;;;17.23;15.53;;;12.60;1.00;;;;;;6300817;28;20224;-55
2022/11/13 13:41:11;;;;;;;19.23;15.43;;;12.70;1.00;;;;;;6302446;28;20723;-56
2022/11/13 13:44:42;;;;;;;16.67;14.93;;;12.60;1.00;;;;;;6301102;28;20229;-56
2022/11/13 13:47:48;;;;;;;17.33;15.53;;;12.60;1.00;;;;;;6293281;28;20603;-56
2022/11/13 13:50:52;;;;;;;15.50;14.20;;;12.50;1.00;;;;;;6292052;28;20338;-56
2022/11/13 13:53:59;;;;;;;15.00;13.60;;;12.50;1.00;;;;;;6284105;28;20869;-55
2022/11/13 13:57:02;;;;;;;16.00;14.50;;;12.40;1.00;;;;;;6295269;28;20241;-54
2022/11/13 14:00:11;;;;;;;15.97;14.33;;;12.40;1.00;;;;;;6294900;28;20653;-55
2022/11/13 14:03:19;;;;;;;16.17;14.57;;;12.40;1.00;;;;;;6295272;28;20648;-54
2022/11/13 14:06:24;;;;;;;16.40;14.67;;;12.30;1.00;;;;;;6292179;28;20263;-55
2022/11/13 14:09:30;;;;;;;16.10;14.50;;;12.20;1.00;;;;;;6299948;28;20316;-54
2022/11/13 14:12:42;;;;;;;15.97;14.37;;;12.20;1.00;;;;;;6293852;28;20233;-56
2022/11/13 14:15:45;;;;;;;16.20;14.80;;;12.10;1.00;;;;;;6288230;28;20234;-53
2022/11/13 14:18:48;;;;;;;16.13;14.57;;;12.00;1.00;;;;;;6300293;28;20247;-55
2022/11/13 14:21:54;;;;;;;15.50;14.00;;;11.90;1.00;;;;;;6294711;27;20475;-53
2022/11/13 14:25:02;;;;;;;17.03;15.17;;;11.80;1.00;;;;;;6284067;28;20232;-55
2022/11/13 14:28:05;;;;;;;17.23;14.70;;;11.80;1.00;;;;;;6293524;28;20774;-55
2022/11/13 14:31:13;;;;;;;16.13;14.53;;;11.70;1.00;;;;;;6306948;28;20505;-54
2022/11/13 14:34:19;;;;;;;16.70;14.87;;;11.70;1.00;;;;;;6289014;28;20676;-55
2022/11/13 14:37:25;;;;;;;15.57;14.07;;;11.60;1.00;;;;;;6292558;28;20724;-54
2022/11/13 14:40:38;;;;;;;16.87;15.27;;;11.50;1.00;;;;;;6298792;28;20319;-56
2022/11/13 14:43:50;;;;;;;17.33;15.03;;;11.40;1.00;;;;;;6291086;28;20304;-55
2022/11/13 14:47:00;;;;;;;15.57;13.97;;;11.40;1.00;;;;;;6297345;28;20432;-56
2022/11/13 14:50:19;;;;;;;15.90;14.30;;;11.30;1.00;;;;;;6288793;28;20233;-55
2022/11/13 14:53:30;;;;;;;16.83;15.03;;;11.20;1.00;;;;;;6302600;28;20752;-56
2022/11/13 14:56:39;;;;;;;15.53;14.03;;;11.20;1.00;;;;;;6288746;28;20263;-56
2022/11/13 14:59:43;;;;;;;16.13;14.43;;;11.10;1.00;;;;;;6295202;28;20252;-55
2022/11/13 15:02:46;;;;;;;16.23;14.60;;;11.00;1.00;;;;;;6275026;28;20611;-54
2022/11/13 15:05:50;;;;;;;16.37;14.67;;;11.00;1.00;;;;;;6296617;28;20942;-54
2022/11/13 15:08:57;;;;;;;17.03;15.33;;;10.90;1.00;;;;;;6288426;28;20241;-55
2022/11/13 15:12:01;;;;;;;16.00;14.43;;;10.90;1.00;;;;;;6290010;28;20247;-54
2022/11/13 15:15:05;;;;;;;17.73;15.97;;;10.80;1.00;;;;;;6287088;28;20225;-53
2022/11/13 15:18:15;;;;;;;16.73;15.07;;;10.70;1.00;;;;;;6282200;28;20264;-55
2022/11/13 15:21:18;;;;;;;16.73;15.03;;;10.70;1.00;;;;;;6282407;28;20221;-55
2022/11/13 15:24:21;;;;;;;15.57;13.97;;;10.70;1.00;;;;;;6278536;28;20235;-52
2022/11/13 15:27:25;;;;;;;19.63;16.80;;;10.50;1.00;;;;;;6294796;28;20245;-54
2022/11/13 15:30:28;;;;;;;16.80;15.00;;;10.40;1.00;;;;;;6289308;28;20241;-55
2022/11/13 15:33:31;;;;;;;20.23;14.90;;;10.40;1.00;;;;;;6302011;28;20243;-55
2022/11/13 15:36:34;;;;;;;17.40;15.83;;;10.40;1.00;;;;;;6293874;28;20332;-61
2022/11/13 15:39:37;;;;;;;17.23;15.20;;;10.30;1.00;;;;;;6295393;28;20365;-55
2022/11/13 15:42:46;;;;;;;18.10;15.10;;;10.30;1.00;;;;;;6297442;28;20237;-55
2022/11/13 15:45:49;;;;;;;17.30;15.27;;;10.20;1.00;;;;;;6292973;28;20608;-54
2022/11/13 15:48:53;;;;;;;18.50;15.63;;;10.10;1.00;;;;;;6289496;28;20244;-55
2022/11/13 15:51:56;;;;;;;17.87;15.97;;;10.00;1.00;;;;;;6294450;28;20259;-53
2022/11/13 15:54:59;;;;;;;18.57;16.40;;;10.00;1.00;;;;;;6302756;28;20243;-56
2022/11/13 15:58:03;;;;;;;20.67;16.57;;;10.00;1.00;;;;;;6294961;28;20422;-53
2022/11/13 16:01:08;;;;;;;20.90;17.07;;;9.90;1.00;;;;;;6300330;28;20241;-54
2022/11/13 16:04:11;;;;;;;20.57;17.30;;;9.90;1.00;;;;;;6296235;28;20328;-54
2022/11/13 16:07:17;;;;;;;19.30;17.23;;;9.90;1.00;;;;;;6293663;28;20236;-55